createdAt,value
2022-10-05T00:00:34.403Z,9.667999
2022-10-05T00:01:34.442Z,9.667979
2022-10-05T00:02:34.350Z,9.667979
2022-10-05T00:03:34.399Z,9.667996
2022-10-05T00:04:34.352Z,9.667947
2022-10-05T00:05:34.384Z,9.667933
2022-10-05T00:06:34.323Z,9.667944
2022-10-05T00:07:34.334Z,9.667952
2022-10-05T00:08:34.301Z,9.667972
2022-10-05T00:09:34.308Z,9.667963
2022-10-05T00:10:34.297Z,9.667992
2022-10-05T00:11:34.326Z,9.667986
2022-10-05T00:12:34.294Z,9.667976
2022-10-05T00:13:34.275Z,9.667975
2022-10-05T00:14:34.257Z,9.667946
2022-10-05T00:15:34.244Z,9.667916
2022-10-05T00:16:34.321Z,9.668001
2022-10-05T00:17:34.235Z,9.667997
2022-10-05T00:18:34.219Z,9.668043
2022-10-05T00:19:34.216Z,9.667986
2022-10-05T00:20:34.209Z,9.668034
2022-10-05T00:21:34.205Z,9.667995
2022-10-05T00:22:34.206Z,9.668026
2022-10-05T00:23:34.169Z,9.667985
2022-10-05T00:24:34.173Z,9.667941
2022-10-05T00:25:34.201Z,9.667973
2022-10-05T00:26:34.140Z,9.667976
2022-10-05T00:27:34.206Z,9.667968
2022-10-05T00:28:34.199Z,9.668001
2022-10-05T00:29:34.207Z,9.668005
2022-10-05T00:30:34.146Z,9.667979
2022-10-05T00:31:34.191Z,9.667983
2022-10-05T00:32:34.135Z,9.668021
2022-10-05T00:33:34.104Z,9.667878
2022-10-05T00:34:34.105Z,9.667932
2022-10-05T00:35:34.119Z,9.667985
2022-10-05T00:36:34.157Z,9.668015
2022-10-05T00:37:34.072Z,9.667910
2022-10-05T00:38:34.095Z,9.667933
2022-10-05T00:39:34.063Z,9.668037
2022-10-05T00:40:34.069Z,9.668037
2022-10-05T00:41:34.072Z,9.668013
2022-10-05T00:42:34.998Z,9.668032
2022-10-05T00:43:34.717Z,9.667977
2022-10-05T00:44:34.657Z,9.668007
2022-10-05T00:45:34.037Z,9.667976
2022-10-05T00:46:34.021Z,9.667960
2022-10-05T00:47:34.007Z,9.667978
2022-10-05T00:48:34.008Z,9.668000
2022-10-05T00:49:33.966Z,9.667982
2022-10-05T00:50:33.974Z,9.667996
2022-10-05T00:51:33.955Z,9.668000
2022-10-05T00:52:33.962Z,9.667989
2022-10-05T00:53:34.044Z,9.667985
2022-10-05T00:54:33.941Z,9.668018
2022-10-05T00:55:33.994Z,9.667988
2022-10-05T00:56:33.939Z,9.668005
2022-10-05T00:57:34.684Z,9.668006
2022-10-05T00:58:33.942Z,9.668014
2022-10-05T00:59:33.896Z,9.668016
2022-10-05T01:00:33.919Z,9.668042
2022-10-05T01:01:33.938Z,9.668016
2022-10-05T01:02:36.877Z,9.668009
2022-10-05T01:03:34.877Z,9.667999
2022-10-05T01:04:33.865Z,9.668043
2022-10-05T01:05:33.969Z,9.668002
2022-10-05T01:06:33.857Z,9.668003
2022-10-05T01:07:33.890Z,9.668043
2022-10-05T01:08:33.840Z,9.668022
2022-10-05T01:09:33.845Z,9.668000
2022-10-05T01:10:34.502Z,9.667994
2022-10-05T01:11:33.896Z,9.668004
2022-10-05T01:12:33.823Z,9.668060
2022-10-05T01:13:33.824Z,9.668021
2022-10-05T01:14:33.790Z,9.668076
2022-10-05T01:15:33.779Z,9.668095
2022-10-05T01:16:33.851Z,9.668043
2022-10-05T01:17:34.818Z,9.668097
2022-10-05T01:18:33.798Z,9.668012
2022-10-05T01:19:33.772Z,9.668041
2022-10-05T01:20:33.771Z,9.668064
2022-10-05T01:21:33.726Z,9.668049
2022-10-05T01:22:33.782Z,9.668059
2022-10-05T01:23:33.780Z,9.668000
2022-10-05T01:24:33.737Z,9.668007
2022-10-05T01:25:33.700Z,9.667974
2022-10-05T01:26:33.691Z,9.668012
2022-10-05T01:27:33.660Z,9.667947
2022-10-05T01:28:33.725Z,9.667983
2022-10-05T01:29:33.698Z,9.668026
2022-10-05T01:30:33.637Z,9.668010
2022-10-05T01:31:33.659Z,9.668013
2022-10-05T01:32:33.634Z,9.668092
2022-10-05T01:33:33.627Z,9.668006
2022-10-05T01:34:33.654Z,9.667957
2022-10-05T01:35:33.621Z,9.667982
2022-10-05T01:36:33.612Z,9.668028
2022-10-05T01:37:33.598Z,9.668000
2022-10-05T01:38:34.143Z,9.668030
2022-10-05T01:39:33.623Z,9.668024
2022-10-05T01:40:33.570Z,9.668017
2022-10-05T01:41:33.602Z,9.668028
2022-10-05T01:42:35.092Z,9.668019
2022-10-05T01:43:33.543Z,9.668056
2022-10-05T01:44:33.551Z,9.667973
2022-10-05T02:06:55.095Z,9.667998
2022-10-05T02:07:55.113Z,9.667983
2022-10-05T02:08:55.108Z,9.667963
2022-10-05T02:09:55.143Z,9.667941
2022-10-05T02:10:55.143Z,9.667955
2022-10-05T02:11:55.066Z,9.668008
2022-10-05T02:12:55.095Z,9.667981
2022-10-05T02:13:55.086Z,9.667948
2022-10-05T02:14:55.053Z,9.667970
2022-10-05T02:15:55.114Z,9.667950
2022-10-05T02:16:55.058Z,9.668015
2022-10-05T02:17:55.009Z,9.668002
2022-10-05T02:18:55.035Z,9.667973
2022-10-05T02:19:55.055Z,9.667964
2022-10-05T02:20:55.111Z,9.667936
2022-10-05T02:21:54.980Z,9.667938
2022-10-05T02:22:54.951Z,9.667934
2022-10-05T02:23:54.958Z,9.667898
2022-10-05T02:24:54.943Z,9.667949
2022-10-05T02:25:54.941Z,9.667923
2022-10-05T02:26:54.928Z,9.667946
2022-10-05T02:27:55.015Z,9.667958
2022-10-05T02:28:54.904Z,9.667988
2022-10-05T02:29:54.940Z,9.668005
2022-10-05T02:30:54.941Z,9.668040
2022-10-05T02:31:54.921Z,9.667955
2022-10-05T02:32:54.875Z,9.668045
2022-10-05T02:33:54.882Z,9.667993
2022-10-05T02:34:55.868Z,9.668003
2022-10-05T02:35:54.842Z,9.667979
2022-10-05T02:36:54.862Z,9.667973
2022-10-05T02:37:54.853Z,9.668005
2022-10-05T02:38:54.844Z,9.668043
2022-10-05T02:39:54.844Z,9.668013
2022-10-05T02:40:54.840Z,9.667993
2022-10-05T02:41:54.808Z,9.668080
2022-10-05T02:42:54.804Z,9.668063
2022-10-05T02:43:54.797Z,9.668028
2022-10-05T02:44:54.780Z,9.667986
2022-10-05T02:45:54.851Z,9.667931
2022-10-05T02:46:57.336Z,9.667951
2022-10-05T02:47:55.776Z,9.667954
2022-10-05T02:48:54.790Z,9.668016
2022-10-05T02:49:54.741Z,9.667955
2022-10-05T02:50:54.761Z,9.668027
2022-10-05T02:51:54.738Z,9.667978
2022-10-05T02:52:54.772Z,9.668024
2022-10-05T02:53:54.717Z,9.668029
2022-10-05T02:54:54.702Z,9.668002
2022-10-05T02:55:54.686Z,9.668002
2022-10-05T02:56:54.683Z,9.667957
2022-10-05T02:57:54.704Z,9.667986
2022-10-05T02:58:54.699Z,9.667957
2022-10-05T02:59:54.700Z,9.667975
2022-10-05T03:00:54.728Z,9.667992
2022-10-05T03:01:54.706Z,9.667994
2022-10-05T03:02:54.665Z,9.668013
2022-10-05T03:03:54.655Z,9.668038
2022-10-05T03:04:54.617Z,9.667998
2022-10-05T03:05:54.632Z,9.667999
2022-10-05T03:06:54.625Z,9.668004
2022-10-05T03:07:54.620Z,9.667994
2022-10-05T03:08:54.612Z,9.667950
2022-10-05T03:09:58.827Z,9.667963
2022-10-05T03:10:56.564Z,9.667910
2022-10-05T03:11:54.582Z,9.667912
2022-10-05T03:12:54.598Z,9.667912
2022-10-05T03:13:54.556Z,9.667953
2022-10-05T03:14:54.559Z,9.667978
2022-10-05T03:15:54.570Z,9.668027
2022-10-05T03:16:54.561Z,9.668029
2022-10-05T03:17:54.556Z,9.668013
2022-10-05T03:18:54.528Z,9.668035
2022-10-05T03:19:54.556Z,9.668044
2022-10-05T03:20:54.524Z,9.668030
2022-10-05T03:21:54.591Z,9.668027
2022-10-05T03:22:54.536Z,9.668012
2022-10-05T03:23:54.475Z,9.668053
2022-10-05T03:24:54.539Z,9.668040
2022-10-05T03:25:54.537Z,9.668044
2022-10-05T03:26:54.499Z,9.668027
2022-10-05T03:27:54.542Z,9.668018
2022-10-05T03:28:54.497Z,9.668014
2022-10-05T03:29:54.461Z,9.668012
2022-10-05T03:30:54.516Z,9.668052
2022-10-05T03:31:54.465Z,9.668028
2022-10-05T03:32:54.442Z,9.668037
2022-10-05T03:33:54.437Z,9.668015
2022-10-05T03:34:54.419Z,9.668003
2022-10-05T03:35:54.441Z,9.668017
2022-10-05T03:36:54.418Z,9.668010
2022-10-05T03:37:54.418Z,9.668036
2022-10-05T03:38:54.419Z,9.668021
2022-10-05T03:39:54.377Z,9.668033
2022-10-05T03:40:54.343Z,9.667994
2022-10-05T03:41:54.372Z,9.668039
2022-10-05T03:42:54.352Z,9.668036
2022-10-05T03:43:54.393Z,9.667967
2022-10-05T03:44:54.326Z,9.667955
2022-10-05T03:45:54.383Z,9.667999
2022-10-05T03:46:54.349Z,9.667969
2022-10-05T04:05:34.241Z,9.667965
2022-10-05T04:06:34.200Z,9.667879
2022-10-05T04:07:34.173Z,9.667875
2022-10-05T04:08:34.170Z,9.668041
2022-10-05T04:09:34.176Z,9.667977
2022-10-05T04:10:34.226Z,9.668023
2022-10-05T04:11:34.227Z,9.668057
2022-10-05T04:12:34.171Z,9.668005
2022-10-05T04:13:34.305Z,9.667956
2022-10-05T04:14:34.182Z,9.668037
2022-10-05T04:15:34.184Z,9.668047
2022-10-05T04:16:34.139Z,9.668003
2022-10-05T04:17:34.133Z,9.667960
2022-10-05T04:18:34.183Z,9.667957
2022-10-05T04:19:34.122Z,9.667970
2022-10-05T04:20:34.133Z,9.667994
2022-10-05T04:21:34.112Z,9.668010
2022-10-05T04:22:34.144Z,9.667952
2022-10-05T04:23:34.139Z,9.667878
2022-10-05T04:24:34.100Z,9.668007
2022-10-05T04:25:34.093Z,9.667996
2022-10-05T04:26:34.119Z,9.667987
2022-10-05T04:27:34.381Z,9.668049
2022-10-05T04:28:34.083Z,9.668045
2022-10-05T04:29:34.033Z,9.668019
2022-10-05T04:30:34.023Z,9.668006
2022-10-05T04:31:34.127Z,9.667977
2022-10-05T04:32:34.110Z,9.667983
2022-10-05T04:33:34.012Z,9.668012
2022-10-05T04:34:34.015Z,9.668001
2022-10-05T04:35:34.000Z,9.667968
2022-10-05T04:36:33.997Z,9.667986
2022-10-05T04:37:34.034Z,9.667970
2022-10-05T04:38:35.005Z,9.668009
2022-10-05T04:39:33.980Z,9.667995
2022-10-05T04:40:34.009Z,9.668038
2022-10-05T04:41:33.944Z,9.668037
2022-10-05T04:42:33.945Z,9.667982
2022-10-05T04:43:34.000Z,9.668027
2022-10-05T04:44:33.966Z,9.668049
2022-10-05T04:45:33.942Z,9.668048
2022-10-05T04:46:34.067Z,9.668057
2022-10-05T04:47:33.945Z,9.668050
2022-10-05T04:48:33.952Z,9.668004
2022-10-05T04:49:33.888Z,9.667971
2022-10-05T04:50:33.898Z,9.667970
2022-10-05T04:51:33.895Z,9.668003
2022-10-05T04:52:33.887Z,9.667946
2022-10-05T04:53:33.879Z,9.668008
2022-10-05T04:54:33.974Z,9.668023
2022-10-05T04:55:33.890Z,9.668014
2022-10-05T04:56:33.897Z,9.668000
2022-10-05T04:57:33.869Z,9.667923
2022-10-05T04:58:34.697Z,9.667997
2022-10-05T04:59:33.886Z,9.668025
2022-10-05T05:00:33.896Z,9.668025
2022-10-05T05:01:33.896Z,9.667918
2022-10-05T05:02:33.859Z,9.667986
2022-10-05T05:03:33.861Z,9.668030
2022-10-05T05:04:33.775Z,9.668028
2022-10-05T05:05:33.824Z,9.667940
2022-10-05T05:06:33.809Z,9.667994
2022-10-05T05:07:33.720Z,9.668012
2022-10-05T05:08:33.764Z,9.667949
2022-10-05T05:09:33.755Z,9.667999
2022-10-05T05:10:33.811Z,9.667994
2022-10-05T05:11:33.728Z,9.667992
2022-10-05T05:12:33.718Z,9.667936
2022-10-05T05:13:33.720Z,9.667949
2022-10-05T05:14:33.726Z,9.667947
2022-10-05T05:15:33.705Z,9.667980
2022-10-05T05:16:33.729Z,9.668031
2022-10-05T05:17:33.685Z,9.668027
2022-10-05T05:18:33.748Z,9.668013
2022-10-05T05:19:33.684Z,9.668019
2022-10-05T05:20:34.393Z,9.668004
2022-10-05T05:21:33.693Z,9.667964
2022-10-05T05:22:33.729Z,9.667973
2022-10-05T05:23:33.698Z,9.668007
2022-10-05T05:24:33.630Z,9.668083
2022-10-05T05:25:33.611Z,9.668009
2022-10-05T05:26:45.574Z,9.668101
2022-10-05T05:27:35.600Z,9.668043
2022-10-05T05:28:33.650Z,9.668032
2022-10-05T05:29:33.665Z,9.668003
2022-10-05T05:30:33.595Z,9.668000
2022-10-05T05:31:33.619Z,9.668059
2022-10-05T05:32:33.604Z,9.667950
2022-10-05T05:33:33.590Z,9.667888
2022-10-05T05:34:33.578Z,9.667895
2022-10-05T05:35:33.622Z,9.667971
2022-10-05T05:36:33.529Z,9.667950
2022-10-05T05:37:33.551Z,9.667969
2022-10-05T05:38:33.497Z,9.667992
2022-10-05T05:39:33.554Z,9.667975
2022-10-05T05:40:33.506Z,9.667952
2022-10-05T05:41:33.540Z,9.667869
2022-10-05T05:42:33.528Z,9.667924
2022-10-05T05:43:33.524Z,9.667932
2022-10-05T05:44:38.454Z,9.667903
2022-10-05T05:45:35.500Z,9.667870
2022-10-05T05:46:58.325Z,9.667919
2022-10-05T05:47:35.621Z,9.667910
2022-10-05T05:48:33.465Z,9.668038
2022-10-05T05:49:33.499Z,9.668011
2022-10-05T05:50:33.480Z,9.667865
2022-10-05T05:51:33.432Z,9.667849
2022-10-05T05:52:33.452Z,9.667838
2022-10-05T05:53:33.409Z,9.667858
2022-10-05T05:54:33.472Z,9.667980
2022-10-05T05:55:33.455Z,9.667955
2022-10-05T05:56:33.405Z,9.668044
2022-10-05T05:57:34.153Z,9.668007
2022-10-05T05:58:33.418Z,9.667985
2022-10-05T05:59:33.362Z,9.668021
2022-10-05T06:00:33.394Z,9.668042
2022-10-05T06:01:34.032Z,9.667876
2022-10-05T06:02:34.566Z,9.667900
2022-10-05T06:03:33.352Z,9.667891
2022-10-05T06:04:33.411Z,9.667824
2022-10-05T06:05:33.342Z,9.667957
2022-10-05T06:06:33.386Z,9.667937
2022-10-05T06:07:33.399Z,9.668069
2022-10-05T06:08:33.278Z,9.668003
2022-10-05T06:09:33.308Z,9.667999
2022-10-05T06:10:33.319Z,9.668063
2022-10-05T06:11:33.327Z,9.668042
2022-10-05T06:12:33.321Z,9.668002
2022-10-05T06:13:33.312Z,9.668017
2022-10-05T06:14:33.366Z,9.668088
2022-10-05T06:15:33.282Z,9.668016
2022-10-05T06:16:33.324Z,9.667965
2022-10-05T06:17:33.308Z,9.667990
2022-10-05T06:18:33.335Z,9.668037
2022-10-05T06:19:33.229Z,9.667944
2022-10-05T06:20:33.245Z,9.667944
2022-10-05T06:21:33.252Z,9.668055
2022-10-05T06:22:33.287Z,9.668046
2022-10-05T06:23:33.309Z,9.668055
2022-10-05T06:24:33.245Z,9.668059
2022-10-05T06:25:33.224Z,9.668101
2022-10-05T06:26:33.235Z,9.668099
2022-10-05T06:27:33.230Z,9.668083
2022-10-05T06:28:33.230Z,9.668083
2022-10-05T06:29:33.207Z,9.668097
2022-10-05T06:30:33.203Z,9.667986
2022-10-05T06:31:33.185Z,9.668036
2022-10-05T06:32:33.343Z,9.667984
2022-10-05T06:33:33.172Z,9.667998
2022-10-05T06:34:33.171Z,9.668071
2022-10-05T06:35:33.110Z,9.668014
2022-10-05T06:36:33.140Z,9.668022
2022-10-05T06:37:33.182Z,9.668002
2022-10-05T06:38:33.137Z,9.668008
2022-10-05T06:39:33.145Z,9.667969
2022-10-05T06:40:33.073Z,9.667997
2022-10-05T06:41:33.080Z,9.668062
2022-10-05T06:42:33.163Z,9.668118
2022-10-05T06:43:33.050Z,9.668080
2022-10-05T06:44:33.028Z,9.668060
2022-10-05T06:45:33.122Z,9.668030
2022-10-05T06:46:33.123Z,9.667974
2022-10-05T06:47:33.009Z,9.668037
2022-10-05T06:48:33.050Z,9.668010
2022-10-05T06:49:33.008Z,9.668038
2022-10-05T06:50:32.984Z,9.667995
2022-10-05T06:51:32.973Z,9.668046
2022-10-05T06:52:33.008Z,9.668025
2022-10-05T06:53:32.985Z,9.668024
2022-10-05T06:54:32.942Z,9.667985
2022-10-05T06:55:32.924Z,9.667980
2022-10-05T06:56:32.959Z,9.667974
2022-10-05T06:57:32.949Z,9.667999
2022-10-05T06:58:32.965Z,9.668014
2022-10-05T06:59:32.986Z,9.667984
2022-10-05T07:00:32.905Z,9.668016
2022-10-05T07:01:32.931Z,9.668015
2022-10-05T07:02:32.972Z,9.667984
2022-10-05T07:03:32.879Z,9.668000
2022-10-05T07:04:36.780Z,9.668015
2022-10-05T07:05:33.919Z,9.667989
2022-10-05T07:06:32.895Z,9.667966
2022-10-05T07:07:32.903Z,9.667948
2022-10-05T07:08:32.975Z,9.667999
2022-10-05T07:09:32.899Z,9.668015
2022-10-05T07:10:33.343Z,9.667984
2022-10-05T07:11:32.912Z,9.667990
2022-10-05T07:12:32.796Z,9.668024
2022-10-05T07:13:32.828Z,9.667983
2022-10-05T07:14:32.801Z,9.668021
2022-10-05T07:15:32.772Z,9.667993
2022-10-05T07:16:32.819Z,9.668028
2022-10-05T07:17:33.815Z,9.668017
2022-10-05T07:18:32.768Z,9.667993
2022-10-05T07:19:32.776Z,9.667953
2022-10-05T07:20:32.744Z,9.667955
2022-10-05T07:21:32.791Z,9.667973
2022-10-05T07:22:34.215Z,9.667965
2022-10-05T07:23:32.737Z,9.667973
2022-10-05T07:24:32.735Z,9.668015
2022-10-05T07:25:32.708Z,9.668081
2022-10-05T07:26:32.695Z,9.668067
2022-10-05T07:27:32.712Z,9.668067
2022-10-05T07:28:32.849Z,9.668006
2022-10-05T07:29:32.703Z,9.668047
2022-10-05T07:30:32.712Z,9.668036
2022-10-05T07:31:32.674Z,9.667964
2022-10-05T07:32:33.376Z,9.667959
2022-10-05T07:33:32.715Z,9.667959
2022-10-05T07:34:32.639Z,9.667920
2022-10-05T07:35:32.609Z,9.667992
2022-10-05T07:36:32.668Z,9.668004
2022-10-05T07:37:32.689Z,9.667994
2022-10-05T07:38:32.636Z,9.668053
2022-10-05T07:39:58.463Z,9.668020
2022-10-05T07:40:34.588Z,9.668013
2022-10-05T07:41:32.621Z,9.668056
2022-10-05T07:42:32.563Z,9.667989
2022-10-05T07:43:57.568Z,9.668016
2022-10-05T07:44:34.588Z,9.668035
2022-10-05T07:45:32.598Z,9.667955
2022-10-05T07:46:32.588Z,9.667989
2022-10-05T07:47:32.547Z,9.668061
2022-10-05T07:48:32.540Z,9.668072
2022-10-05T07:49:32.537Z,9.668000
2022-10-05T07:50:32.482Z,9.668070
2022-10-05T07:51:32.535Z,9.668024
2022-10-05T07:52:34.933Z,9.667992
2022-10-05T07:53:33.480Z,9.667951
2022-10-05T07:54:32.506Z,9.667977
2022-10-05T07:55:32.519Z,9.667924
2022-10-05T07:56:32.484Z,9.667946
2022-10-05T07:57:32.461Z,9.667912
2022-10-05T07:58:32.436Z,9.667954
2022-10-05T07:59:32.468Z,9.667953
2022-10-05T08:00:32.448Z,9.667969
2022-10-05T08:01:32.453Z,9.667956
2022-10-05T08:02:32.611Z,9.667956
2022-10-05T08:03:32.426Z,9.667983
2022-10-05T08:04:32.471Z,9.667946
2022-10-05T08:05:32.405Z,9.667979
2022-10-05T08:06:32.426Z,9.667985
2022-10-05T08:07:32.387Z,9.667962
2022-10-05T08:08:32.382Z,9.667969
2022-10-05T08:09:32.408Z,9.667952
2022-10-05T08:10:32.340Z,9.667967
2022-10-05T08:11:32.369Z,9.667969
2022-10-05T08:12:32.347Z,9.668001
2022-10-05T08:13:32.365Z,9.667952
2022-10-05T08:14:32.308Z,9.667974
2022-10-05T08:15:32.330Z,9.667994
2022-10-05T08:16:32.312Z,9.667927
2022-10-05T08:17:32.302Z,9.667935
2022-10-05T08:18:32.353Z,9.667944
2022-10-05T08:19:32.298Z,9.667906
2022-10-05T08:20:32.290Z,9.667921
2022-10-05T08:21:34.891Z,9.667930
2022-10-05T08:22:32.284Z,9.667888
2022-10-05T08:23:32.277Z,9.667910
2022-10-05T08:24:32.260Z,9.667964
2022-10-05T08:25:32.229Z,9.667959
2022-10-05T08:26:32.233Z,9.667925
2022-10-05T08:27:32.220Z,9.667978
2022-10-05T08:28:32.298Z,9.667979
2022-10-05T08:29:32.202Z,9.667939
2022-10-05T08:30:32.218Z,9.667954
2022-10-05T08:31:32.267Z,9.668023
2022-10-05T08:32:32.176Z,9.667925
2022-10-05T08:33:32.683Z,9.667906
2022-10-05T08:34:32.175Z,9.667930
2022-10-05T08:35:32.180Z,9.667901
2022-10-05T08:36:32.128Z,9.667954
2022-10-05T08:37:32.142Z,9.667908
2022-10-05T08:38:32.146Z,9.667944
2022-10-05T08:39:32.148Z,9.667909
2022-10-05T08:40:32.133Z,9.667926
2022-10-05T08:41:32.684Z,9.667952
2022-10-05T08:42:32.150Z,9.667910
2022-10-05T08:43:35.496Z,9.667962
2022-10-05T08:44:33.134Z,9.667977
2022-10-05T08:45:32.107Z,9.667926
2022-10-05T08:46:32.118Z,9.667941
2022-10-05T08:47:33.332Z,9.667912
2022-10-05T08:48:32.086Z,9.667915
2022-10-05T08:49:35.167Z,9.667938
2022-10-05T08:50:33.078Z,9.667926
2022-10-05T08:51:32.071Z,9.667917
2022-10-05T08:52:32.043Z,9.667942
2022-10-05T08:53:32.027Z,9.667898
2022-10-05T08:54:32.034Z,9.667879
2022-10-05T08:55:32.040Z,9.667904
2022-10-05T08:56:32.018Z,9.667865
2022-10-05T08:57:32.001Z,9.667929
2022-10-05T08:58:32.049Z,9.667922
2022-10-05T08:59:32.893Z,9.667920
2022-10-05T09:00:31.967Z,9.667880
2022-10-05T09:01:32.097Z,9.667891
2022-10-05T09:02:32.018Z,9.667891
2022-10-05T09:03:34.439Z,9.667899
2022-10-05T09:04:32.937Z,9.667884
2022-10-05T09:05:31.945Z,9.667887
2022-10-05T09:06:31.973Z,9.667966
2022-10-05T09:07:31.945Z,9.667961
2022-10-05T09:08:31.915Z,9.667946
2022-10-05T09:09:31.943Z,9.667994
2022-10-05T09:10:31.911Z,9.667944
2022-10-05T09:11:31.962Z,9.667948
2022-10-05T09:12:31.867Z,9.667942
2022-10-05T09:13:31.868Z,9.667985
2022-10-05T09:14:31.855Z,9.667971
2022-10-05T09:15:31.949Z,9.667937
2022-10-05T09:16:31.896Z,9.667990
2022-10-05T09:17:35.837Z,9.667926
2022-10-05T09:18:32.847Z,9.667956
2022-10-05T09:19:32.856Z,9.667970
2022-10-05T09:20:31.871Z,9.667862
2022-10-05T09:21:31.851Z,9.667870
2022-10-05T09:22:31.856Z,9.667985
2022-10-05T09:23:31.819Z,9.667951
2022-10-05T09:24:31.796Z,9.667974
2022-10-05T09:25:31.820Z,9.667996
2022-10-05T09:26:31.796Z,9.668012
2022-10-05T09:27:31.820Z,9.668007
2022-10-05T09:28:31.882Z,9.667970
2022-10-05T09:29:31.759Z,9.667945
2022-10-05T09:30:31.781Z,9.667920
2022-10-05T09:31:31.853Z,9.667947
2022-10-05T09:32:31.727Z,9.667975
2022-10-05T09:33:31.716Z,9.667928
2022-10-05T09:34:31.754Z,9.667974
2022-10-05T09:35:31.778Z,9.667959
2022-10-05T09:36:31.754Z,9.667979
2022-10-05T09:37:31.740Z,9.667970
2022-10-05T09:38:32.425Z,9.667984
2022-10-05T09:39:31.695Z,9.668007
2022-10-05T09:40:31.675Z,9.667931
2022-10-05T09:41:31.724Z,9.667922
2022-10-05T09:42:31.782Z,9.667929
2022-10-05T09:43:31.696Z,9.667925
2022-10-05T09:44:31.671Z,9.667920
2022-10-05T09:45:31.719Z,9.667992
2022-10-05T09:46:31.729Z,9.667987
2022-10-05T09:47:31.678Z,9.667974
2022-10-05T09:48:31.747Z,9.667950
2022-10-05T09:49:32.398Z,9.667953
2022-10-05T09:50:31.564Z,9.667927
2022-10-05T09:51:31.654Z,9.667935
2022-10-05T09:52:31.572Z,9.667928
2022-10-05T09:53:31.587Z,9.667972
2022-10-05T09:54:32.555Z,9.667994
2022-10-05T09:55:31.565Z,9.667959
2022-10-05T09:56:31.561Z,9.668022
2022-10-05T09:57:31.533Z,9.667990
2022-10-05T09:58:31.526Z,9.667956
2022-10-05T09:59:31.576Z,9.667946
2022-10-05T10:00:31.539Z,9.667975
2022-10-05T10:01:34.097Z,9.667947
2022-10-05T10:02:32.652Z,9.667981
2022-10-05T10:03:31.543Z,9.667947
2022-10-05T10:04:31.510Z,9.667958
2022-10-05T10:05:31.500Z,9.668021
2022-10-05T10:06:32.409Z,9.668020
2022-10-05T10:07:31.483Z,9.667958
2022-10-05T10:08:31.527Z,9.667972
2022-10-05T10:09:33.086Z,9.667996
2022-10-05T10:10:31.463Z,9.668003
2022-10-05T10:11:31.456Z,9.668001
2022-10-05T10:12:31.463Z,9.668023
2022-10-05T10:13:31.481Z,9.668034
2022-10-05T10:14:32.320Z,9.668013
2022-10-05T10:15:31.470Z,9.668034
2022-10-05T10:16:31.441Z,9.668040
2022-10-05T10:17:31.463Z,9.668039
2022-10-05T10:18:32.222Z,9.668034
2022-10-05T10:19:31.449Z,9.668031
2022-10-05T10:20:31.370Z,9.668021
2022-10-05T10:21:31.471Z,9.668015
2022-10-05T10:22:31.435Z,9.668007
2022-10-05T10:23:31.514Z,9.668015
2022-10-05T10:24:31.392Z,9.668039
2022-10-05T10:25:31.328Z,9.668023
2022-10-05T10:26:32.221Z,9.668041
2022-10-05T10:27:31.367Z,9.668036
2022-10-05T10:28:31.404Z,9.668010
2022-10-05T10:29:31.343Z,9.668039
2022-10-05T10:30:33.211Z,9.668021
2022-10-05T10:31:31.928Z,9.668036
2022-10-05T10:32:31.282Z,9.668006
2022-10-05T10:33:31.361Z,9.668045
2022-10-05T10:34:31.291Z,9.668019
2022-10-05T10:35:31.372Z,9.668014
2022-10-05T10:36:31.284Z,9.668033
2022-10-05T10:37:31.306Z,9.668026
2022-10-05T10:38:31.228Z,9.668023
2022-10-05T10:39:31.246Z,9.668073
2022-10-05T10:40:31.202Z,9.668075
2022-10-05T10:41:31.237Z,9.668102
2022-10-05T10:42:31.229Z,9.668080
2022-10-05T10:43:31.178Z,9.668021
2022-10-05T10:44:31.158Z,9.668034
2022-10-05T10:45:31.250Z,9.668053
2022-10-05T10:46:31.195Z,9.668025
2022-10-05T10:47:31.164Z,9.668008
2022-10-05T10:48:31.199Z,9.668007
2022-10-05T10:49:32.199Z,9.668026
2022-10-05T10:50:31.119Z,9.668024
2022-10-05T10:51:31.175Z,9.668016
2022-10-05T10:52:31.140Z,9.668066
2022-10-05T10:53:31.117Z,9.668053
2022-10-05T10:54:31.117Z,9.667973
2022-10-05T10:55:31.103Z,9.668004
2022-10-05T10:56:31.118Z,9.668008
2022-10-05T10:57:31.061Z,9.668013
2022-10-05T10:59:31.778Z,9.667960
2022-10-05T11:00:31.070Z,9.667992
2022-10-05T11:01:31.089Z,9.667940
2022-10-05T11:02:32.099Z,9.667976
2022-10-05T11:03:31.049Z,9.667974
2022-10-05T11:04:31.074Z,9.668010
2022-10-05T11:05:31.017Z,9.667997
2022-10-05T11:06:31.028Z,9.668026
2022-10-05T11:07:31.058Z,9.668020
2022-10-05T11:08:31.006Z,9.667987
2022-10-05T11:09:31.017Z,9.668052
2022-10-05T11:10:30.981Z,9.668017
2022-10-05T11:11:31.027Z,9.668045
2022-10-05T11:12:34.590Z,9.668058
2022-10-05T11:13:31.961Z,9.668007
2022-10-05T11:14:30.991Z,9.668008
2022-10-05T11:15:30.963Z,9.668016
2022-10-05T11:16:30.958Z,9.668004
2022-10-05T11:17:31.000Z,9.668001
2022-10-05T11:18:30.982Z,9.668002
2022-10-05T11:19:40.073Z,9.668025
2022-10-05T11:20:32.953Z,9.668024
2022-10-05T11:21:30.899Z,9.668010
2022-10-05T11:22:30.926Z,9.668023
2022-10-05T11:23:34.162Z,9.668002
2022-10-05T11:24:31.888Z,9.668021
2022-10-05T11:25:30.915Z,9.667975
2022-10-05T11:26:30.887Z,9.667995
2022-10-05T11:27:30.864Z,9.668010
2022-10-05T11:28:30.923Z,9.668019
2022-10-05T11:29:30.852Z,9.668021
2022-10-05T11:30:30.865Z,9.668032
2022-10-05T11:31:30.904Z,9.668037
2022-10-05T11:32:31.846Z,9.668054
2022-10-05T11:33:30.851Z,9.668048
2022-10-05T11:34:30.829Z,9.668049
2022-10-05T11:35:30.891Z,9.668016
2022-10-05T11:36:30.785Z,9.668028
2022-10-05T11:37:30.814Z,9.668023
2022-10-05T11:38:30.796Z,9.668040
2022-10-05T11:39:30.772Z,9.668057
2022-10-05T11:40:31.449Z,9.668071
2022-10-05T11:41:31.445Z,9.668072
2022-10-05T11:42:30.746Z,9.668117
2022-10-05T11:43:30.801Z,9.668051
2022-10-05T11:44:30.815Z,9.668043
2022-10-05T11:45:30.785Z,9.668034
2022-10-05T11:46:30.887Z,9.668014
2022-10-05T11:47:30.698Z,9.668050
2022-10-05T11:48:30.700Z,9.668078
2022-10-05T11:49:30.758Z,9.668100
2022-10-05T11:50:30.729Z,9.668099
2022-10-05T11:51:30.669Z,9.668071
2022-10-05T11:52:30.730Z,9.668076
2022-10-05T11:53:30.730Z,9.668037
2022-10-05T11:54:32.495Z,9.668022
2022-10-05T11:55:31.635Z,9.668056
2022-10-05T11:57:31.655Z,9.668077
2022-10-05T11:58:30.642Z,9.668088
2022-10-05T11:59:30.616Z,9.668129
2022-10-05T12:00:30.600Z,9.668132
2022-10-05T12:01:30.664Z,9.668088
2022-10-05T12:02:30.675Z,9.668066
2022-10-05T12:03:30.663Z,9.668050
2022-10-05T12:04:30.701Z,9.668039
2022-10-05T12:05:30.593Z,9.668040
2022-10-05T12:06:30.579Z,9.668069
2022-10-05T12:07:30.601Z,9.668088
2022-10-05T12:08:30.550Z,9.668128
2022-10-05T12:09:30.560Z,9.668108
2022-10-05T12:10:30.550Z,9.668062
2022-10-05T12:11:30.550Z,9.668056
2022-10-05T12:12:30.537Z,9.668098
2022-10-05T12:13:30.526Z,9.668089
2022-10-05T12:14:30.511Z,9.668097
2022-10-05T12:15:30.490Z,9.668096
2022-10-05T12:16:30.551Z,9.668057
2022-10-05T12:17:30.507Z,9.668091
2022-10-05T12:18:31.455Z,9.668114
2022-10-05T12:19:30.436Z,9.668098
2022-10-05T12:20:30.439Z,9.668077
2022-10-05T12:21:30.447Z,9.668069
2022-10-05T12:22:30.443Z,9.668056
2022-10-05T12:23:30.439Z,9.668080
2022-10-05T12:24:30.461Z,9.668106
2022-10-05T12:25:30.404Z,9.668062